createdAt,value
2022-08-24T00:01:29.309Z,101746.55
2022-08-24T00:04:01.380Z,101748.38
2022-08-24T00:06:29.804Z,101744.16
2022-08-24T00:08:59.262Z,101746.52
2022-08-24T00:11:27.847Z,101748.61
2022-08-24T00:13:55.680Z,101741.78
2022-08-24T00:16:24.148Z,101733.05
2022-08-24T00:18:51.834Z,101741.45
2022-08-24T00:21:20.390Z,101750.41
2022-08-24T00:23:50.558Z,101745.93
2022-08-24T00:26:28.599Z,101751.95
2022-08-24T00:28:57.205Z,101754.53
2022-08-24T00:31:24.986Z,101752.41
2022-08-24T00:33:52.706Z,101751.06
2022-08-24T00:36:22.727Z,101759.47
2022-08-24T00:38:50.796Z,101748.13
2022-08-24T00:41:18.575Z,101758.62
2022-08-24T00:43:59.352Z,101752.83
2022-08-24T00:46:46.442Z,101754.92
2022-08-24T00:49:34.758Z,101746.98
2022-08-24T00:52:09.545Z,101739.85
2022-08-24T00:54:46.122Z,101735.11
2022-08-24T00:57:19.217Z,101731.94
2022-08-24T00:59:53.554Z,101731.94
2022-08-24T01:02:33.556Z,101728.99
2022-08-24T01:05:04.991Z,101735.01
2022-08-24T01:07:34.349Z,101732.63
2022-08-24T01:10:06.581Z,101738.41
2022-08-24T01:12:37.335Z,101741.32
2022-08-24T01:15:07.865Z,101740.77
2022-08-24T01:17:56.219Z,101742.07
2022-08-24T01:20:27.353Z,101739.42
2022-08-24T01:23:11.932Z,101740.96
2022-08-24T01:25:43.114Z,101741.19
2022-08-24T01:28:23.776Z,101734.59
2022-08-24T01:30:55.838Z,101734.03
2022-08-24T01:33:27.346Z,101736.38
2022-08-24T01:36:10.681Z,101735.30
2022-08-24T01:38:38.420Z,101741.09
2022-08-24T01:41:06.300Z,101738.18
2022-08-24T01:43:36.935Z,101745.27
2022-08-24T01:46:05.433Z,101747.37
2022-08-24T01:48:33.221Z,101744.20
2022-08-24T01:51:01.150Z,101732.36
2022-08-24T01:53:29.231Z,101734.20
2022-08-24T01:55:56.963Z,101733.63
2022-08-24T01:58:25.754Z,101735.20
2022-08-24T02:00:53.437Z,101729.94
2022-08-24T02:03:21.565Z,101725.46
2022-08-24T02:05:57.199Z,101726.77
2022-08-24T02:08:24.864Z,101733.08
2022-08-24T02:10:56.460Z,101733.08
2022-08-24T02:13:24.876Z,101729.62
2022-08-24T02:15:52.636Z,101735.89
2022-08-24T02:18:20.652Z,101731.67
2022-08-24T02:20:48.337Z,101735.04
2022-08-24T02:23:16.036Z,101733.47
2022-08-24T02:25:43.740Z,101737.40
2022-08-24T02:28:11.575Z,101739.66
2022-08-24T02:30:41.341Z,101744.95
2022-08-24T02:33:09.430Z,101736.48
2022-08-24T02:35:37.356Z,101744.88
2022-08-24T02:38:05.198Z,101749.56
2022-08-24T02:40:33.475Z,101742.20
2022-08-24T02:43:01.117Z,101753.48
2022-08-24T02:45:28.956Z,101750.02
2022-08-24T02:47:56.654Z,101738.97
2022-08-24T02:50:24.697Z,101741.87
2022-08-24T02:52:52.397Z,101740.80
2022-08-24T02:55:20.690Z,101738.12
2022-08-24T02:57:49.421Z,101730.20
2022-08-24T03:00:20.094Z,101736.74
2022-08-24T03:02:47.901Z,101738.54
2022-08-24T03:05:16.465Z,101741.16
2022-08-24T03:07:44.879Z,101740.66
2022-08-24T03:10:12.875Z,101736.19
2022-08-24T03:12:40.878Z,101739.06
2022-08-24T03:15:12.464Z,101740.86
2022-08-24T03:17:41.120Z,101741.38
2022-08-24T03:20:14.959Z,101733.24
2022-08-24T03:22:43.420Z,101730.86
2022-08-24T03:25:12.423Z,101733.73
2022-08-24T03:27:40.646Z,101724.52
2022-08-24T03:30:11.418Z,101730.30
2022-08-24T03:32:39.824Z,101726.61
2022-08-24T03:35:08.529Z,101729.98
2022-08-24T03:37:36.209Z,101726.61
2022-08-24T03:40:04.705Z,101726.09
2022-08-24T03:42:33.185Z,101729.48
2022-08-24T03:45:01.011Z,101726.02
2022-08-24T03:47:28.742Z,101726.24
2022-08-24T03:49:57.410Z,101725.95
2022-08-24T03:52:25.151Z,101724.38
2022-08-24T03:54:53.877Z,101720.39
2022-08-24T03:57:21.583Z,101728.27
2022-08-24T03:59:49.308Z,101721.93
2022-08-24T04:02:17.043Z,101733.47
2022-08-24T04:04:44.857Z,101732.66
2022-08-24T04:07:12.706Z,101738.15
2022-08-24T04:09:40.425Z,101730.50
2022-08-24T04:12:08.269Z,101728.11
2022-08-24T04:14:36.437Z,101728.34
2022-08-24T04:17:05.637Z,101729.35
2022-08-24T04:19:34.750Z,101731.15
2022-08-24T04:22:02.465Z,101735.04
2022-08-24T04:24:30.489Z,101729.78
2022-08-24T04:26:58.202Z,101735.47
2022-08-24T04:29:26.680Z,101737.85
2022-08-24T04:31:54.634Z,101737.04
2022-08-24T04:34:22.529Z,101736.25
2022-08-24T04:36:50.253Z,101734.48
2022-08-24T04:39:17.934Z,101743.91
2022-08-24T04:41:45.650Z,101749.17
2022-08-24T04:44:14.059Z,101745.77
2022-08-24T04:46:41.825Z,101751.78
2022-08-24T04:49:09.633Z,101757.02
2022-08-24T04:51:37.707Z,101753.35
2022-08-24T04:54:07.434Z,101764.38
2022-08-24T04:56:36.081Z,101761.50
2022-08-24T04:59:05.860Z,101755.45
2022-08-24T05:01:34.753Z,101759.41
2022-08-24T05:04:02.811Z,101764.38
2022-08-24T05:06:33.658Z,101766.76
2022-08-24T05:09:03.211Z,101763.88
2022-08-24T05:11:31.099Z,101770.23
2022-08-24T05:13:59.169Z,101768.13
2022-08-24T05:16:30.504Z,101771.60
2022-08-24T05:18:59.517Z,101766.44
2022-08-24T05:21:29.434Z,101768.79
2022-08-24T05:23:57.138Z,101766.50
2022-08-24T05:26:27.929Z,101766.50
2022-08-24T05:28:57.786Z,101762.54
2022-08-24T05:31:28.834Z,101778.53
2022-08-24T05:33:56.767Z,101781.41
2022-08-24T05:36:33.761Z,101779.84
2022-08-24T05:39:10.995Z,101774.58
2022-08-24T05:41:44.035Z,101774.05
2022-08-24T05:44:17.004Z,101771.99
2022-08-24T05:46:45.814Z,101770.98
2022-08-24T05:49:13.844Z,101779.65
2022-08-24T05:51:43.734Z,101774.94
2022-08-24T05:54:14.719Z,101787.33
2022-08-24T05:56:42.876Z,101786.94
2022-08-24T05:59:10.698Z,101785.20
2022-08-24T06:01:43.365Z,101787.62
2022-08-24T06:04:13.984Z,101785.89
2022-08-24T06:06:43.206Z,101782.30
2022-08-24T06:09:12.897Z,101785.30
2022-08-24T06:11:41.971Z,101788.08
2022-08-24T06:14:12.612Z,101775.55
2022-08-24T06:16:43.758Z,101786.12
2022-08-24T06:19:14.431Z,101777.78
2022-08-24T06:21:42.842Z,101782.36
2022-08-24T06:24:10.742Z,101786.05
2022-08-24T06:26:56.980Z,101793.22
2022-08-24T06:29:24.684Z,101786.71
2022-08-24T06:31:54.830Z,101787.52
2022-08-24T06:34:26.656Z,101788.38
2022-08-24T06:36:54.303Z,101788.70
2022-08-24T06:39:22.087Z,101796.91
2022-08-24T06:41:49.790Z,101795.63
2022-08-24T06:44:17.606Z,101801.75
2022-08-24T06:46:45.436Z,101801.26
2022-08-24T06:49:13.389Z,101797.89
2022-08-24T06:51:41.154Z,101795.87
2022-08-24T06:54:09.641Z,101796.98
2022-08-24T06:56:39.185Z,101804.37
2022-08-24T06:59:07.293Z,101810.45
2022-08-24T07:01:35.161Z,101804.20
2022-08-24T07:04:03.027Z,101806.88
2022-08-24T07:06:30.834Z,101804.27
2022-08-24T07:08:58.556Z,101810.61
2022-08-24T07:11:26.663Z,101812.28
2022-08-24T07:13:54.397Z,101808.32
2022-08-24T07:16:22.653Z,101815.48
2022-08-24T07:18:50.746Z,101806.03
2022-08-24T07:21:20.551Z,101799.23
2022-08-24T07:23:56.207Z,101802.66
2022-08-24T07:26:26.650Z,101809.27
2022-08-24T07:29:02.196Z,101803.22
2022-08-24T07:31:34.709Z,101806.63
2022-08-24T07:34:04.709Z,101815.09
2022-08-24T07:36:32.566Z,101807.70
2022-08-24T07:39:00.398Z,101810.58
2022-08-24T07:44:16.743Z,101810.58
2022-08-24T07:46:44.749Z,101811.89
2022-08-24T07:49:33.023Z,101816.63
2022-08-24T07:52:01.853Z,101817.97
2022-08-24T07:54:32.644Z,101804.76
2022-08-24T07:57:03.294Z,101816.59
2022-08-24T07:59:31.227Z,101816.86
2022-08-24T08:02:00.285Z,101820.78
2022-08-24T08:04:28.155Z,101821.05
2022-08-24T08:09:29.129Z,101819.67
2022-08-24T08:11:56.894Z,101822.02
2022-08-24T08:14:24.601Z,101826.21
2022-08-24T08:16:52.523Z,101826.21
2022-08-24T08:19:20.552Z,101821.96
2022-08-24T08:22:10.239Z,101824.28
2022-08-24T08:24:44.801Z,101815.02
2022-08-24T08:27:14.020Z,101816.56
2022-08-24T08:29:42.074Z,101824.48
2022-08-24T08:32:13.236Z,101825.23
2022-08-24T08:34:40.938Z,101824.41
2022-08-24T08:37:08.846Z,101820.91
2022-08-24T08:39:37.006Z,101821.14
2022-08-24T08:42:26.333Z,101821.11
2022-08-24T08:45:37.223Z,101810.74
2022-08-24T08:48:19.837Z,101817.55
2022-08-24T08:51:26.617Z,101811.66
2022-08-24T08:54:06.314Z,101811.89
2022-08-24T08:56:58.583Z,101801.78
2022-08-24T08:59:39.971Z,101804.89
2022-08-24T09:02:35.706Z,101801.39
2022-08-24T09:07:47.353Z,101792.79
2022-08-24T09:10:42.032Z,101796.45
2022-08-24T09:13:31.550Z,101799.30
2022-08-24T09:15:59.837Z,101795.51
2022-08-24T09:18:42.785Z,101799.95
2022-08-24T09:21:10.881Z,101789.78
2022-08-24T09:23:55.176Z,101783.66
2022-08-24T09:26:27.031Z,101783.27
2022-08-24T09:29:13.419Z,101784.26
2022-08-24T09:31:59.425Z,101783.08
2022-08-24T09:34:27.030Z,101781.15
2022-08-24T09:36:56.822Z,101772.55
2022-08-24T09:39:57.869Z,101765.55
2022-08-24T09:42:50.364Z,101766.17
2022-08-24T09:45:38.581Z,101765.75
2022-08-24T09:48:41.328Z,101763.69
2022-08-24T09:51:44.922Z,101756.10
2022-08-24T09:54:48.551Z,101759.60
2022-08-24T09:57:50.404Z,101756.52
2022-08-24T10:00:28.681Z,101758.23
2022-08-24T10:03:00.551Z,101753.32
2022-08-24T10:05:49.690Z,101750.28
2022-08-24T10:08:40.761Z,101752.18
2022-08-24T10:11:13.334Z,101751.98
2022-08-24T10:14:08.082Z,101746.26
2022-08-24T10:16:50.827Z,101741.29
2022-08-24T10:20:13.616Z,101740.30
2022-08-24T10:22:53.228Z,101737.16
2022-08-24T10:25:42.011Z,101727.91
2022-08-24T10:28:38.893Z,101725.10
2022-08-24T10:31:28.206Z,101724.84
2022-08-24T10:34:31.316Z,101723.56
2022-08-24T10:37:17.297Z,101720.16
2022-08-24T10:40:15.974Z,101705.84
2022-08-24T10:43:29.641Z,101719.22
2022-08-24T10:46:00.194Z,101707.80
2022-08-24T10:48:33.377Z,101708.09
2022-08-24T10:51:44.249Z,101709.18
2022-08-24T10:54:14.351Z,101703.95
2022-08-24T10:57:11.909Z,101712.22
2022-08-24T10:59:56.793Z,101703.52
2022-08-24T11:02:30.604Z,101709.41
2022-08-24T11:05:03.060Z,101711.63
2022-08-24T11:07:30.850Z,101705.05
2022-08-24T11:10:01.154Z,101710.16
2022-08-24T11:12:37.706Z,101705.71
2022-08-24T11:15:23.273Z,101713.20
2022-08-24T11:18:05.174Z,101708.16
2022-08-24T11:20:34.841Z,101703.68
2022-08-24T11:23:18.996Z,101708.03
2022-08-24T11:26:05.084Z,101704.34
2022-08-24T11:28:58.644Z,101694.00
2022-08-24T11:31:35.578Z,101696.00
2022-08-24T11:34:14.886Z,101693.12
2022-08-24T11:36:43.400Z,101690.83
2022-08-24T11:39:25.120Z,101687.10
2022-08-24T11:42:15.837Z,101690.63
2022-08-24T11:45:10.784Z,101683.24
2022-08-24T11:48:05.422Z,101689.91
2022-08-24T11:50:42.074Z,101683.87
2022-08-24T11:53:15.081Z,101689.33
2022-08-24T11:56:05.698Z,101682.30
2022-08-24T11:58:59.282Z,101682.10
2022-08-24T12:01:52.439Z,101684.26
2022-08-24T12:04:26.067Z,101682.92
2022-08-24T12:07:11.823Z,101682.92
2022-08-24T12:09:48.009Z,101678.21
2022-08-24T12:12:36.453Z,101680.37
2022-08-24T12:15:13.215Z,101674.52
2022-08-24T12:17:56.926Z,101670.79
2022-08-24T12:20:33.517Z,101673.11
2022-08-24T12:23:18.215Z,101676.80
2022-08-24T12:26:02.963Z,101669.15
2022-08-24T12:28:45.351Z,101670.13
2022-08-24T12:31:44.827Z,101662.71
2022-08-24T12:34:19.939Z,101667.38
2022-08-24T12:37:16.181Z,101664.05
2022-08-24T12:39:53.346Z,101662.09
2022-08-24T12:42:35.298Z,101661.89
2022-08-24T12:45:12.692Z,101649.37
2022-08-24T12:47:52.161Z,101660.09
2022-08-24T12:50:36.505Z,101652.67
2022-08-24T12:53:04.349Z,101656.37
2022-08-24T12:55:52.534Z,101654.41
2022-08-24T12:58:57.451Z,101649.89
2022-08-24T13:01:29.596Z,101649.89
2022-08-24T13:04:09.288Z,101651.46
2022-08-24T13:07:06.017Z,101650.71
2022-08-24T13:09:46.083Z,101653.65
2022-08-24T13:12:34.936Z,101653.42
2022-08-24T13:15:24.482Z,101645.61
2022-08-24T13:18:00.232Z,101646.82
2022-08-24T13:20:52.475Z,101643.71
2022-08-24T13:23:22.288Z,101629.98
2022-08-24T13:25:52.465Z,101626.67
2022-08-24T13:28:22.963Z,101628.84
2022-08-24T13:31:18.497Z,101628.05
2022-08-24T13:34:05.324Z,101626.87
2022-08-24T13:36:33.521Z,101626.51
2022-08-24T13:39:21.688Z,101619.45
2022-08-24T13:42:13.748Z,101614.77
2022-08-24T13:44:47.527Z,101630.04
2022-08-24T13:47:18.190Z,101620.85
2022-08-24T13:50:03.248Z,101622.23
2022-08-24T13:53:01.353Z,101620.46
2022-08-24T13:55:46.210Z,101618.89
2022-08-24T13:58:35.946Z,101618.73
2022-08-24T14:01:06.599Z,101619.28
2022-08-24T14:03:57.405Z,101627.52
2022-08-24T14:07:01.504Z,101620.10
2022-08-24T14:09:49.661Z,101619.91
2022-08-24T14:12:26.538Z,101614.22
2022-08-24T14:15:20.557Z,101615.95
2022-08-24T14:18:00.433Z,101614.58
2022-08-24T14:20:49.943Z,101619.31
2022-08-24T14:23:46.084Z,101618.70
2022-08-24T14:26:39.342Z,101611.08
2022-08-24T14:29:38.002Z,101614.02
2022-08-24T14:32:08.678Z,101603.06
2022-08-24T14:34:43.092Z,101608.13
2022-08-24T14:37:19.697Z,101611.44
2022-08-24T14:39:56.199Z,101610.06
2022-08-24T14:42:47.268Z,101612.41
2022-08-24T14:45:39.066Z,101606.73
2022-08-24T14:48:18.761Z,101605.59
2022-08-24T14:51:11.489Z,101611.63
2022-08-24T14:54:08.749Z,101602.64
2022-08-24T14:57:19.356Z,101603.82
2022-08-24T15:00:13.523Z,101601.82
2022-08-24T15:02:56.305Z,101603.36
2022-08-24T15:05:33.010Z,101600.02
2022-08-24T15:08:16.254Z,101603.78
2022-08-24T15:11:16.431Z,101603.16
2022-08-24T15:13:56.226Z,101606.70
2022-08-24T15:16:35.079Z,101601.59
2022-08-24T15:19:23.018Z,101603.59
2022-08-24T15:22:16.121Z,101590.48
2022-08-24T15:24:53.490Z,101605.32
2022-08-24T15:27:52.204Z,101595.91
2022-08-24T15:30:29.081Z,101599.83
2022-08-24T15:33:20.175Z,101599.24
2022-08-24T15:36:04.389Z,101600.61
2022-08-24T15:38:33.709Z,101596.49
2022-08-24T15:41:09.923Z,101611.37
2022-08-24T15:44:01.010Z,101601.37
2022-08-24T15:46:46.766Z,101608.62
2022-08-24T15:49:23.177Z,101611.57
2022-08-24T15:52:03.423Z,101603.69
2022-08-24T15:54:59.168Z,101597.24
2022-08-24T15:57:28.783Z,101602.12
2022-08-24T16:00:09.247Z,101602.48
2022-08-24T16:02:39.714Z,101596.95
2022-08-24T16:05:14.435Z,101598.12
2022-08-24T16:08:05.477Z,101603.59
2022-08-24T16:10:45.236Z,101597.11
2022-08-24T16:13:18.844Z,101605.95
2022-08-24T16:16:16.304Z,101603.20
2022-08-24T16:18:53.698Z,101610.62
2022-08-24T16:21:40.673Z,101609.48
2022-08-24T16:24:13.717Z,101613.79
2022-08-24T16:26:47.416Z,101601.66
2022-08-24T16:29:38.849Z,101604.05
2022-08-24T16:32:22.979Z,101608.59
2022-08-24T16:35:02.257Z,101605.88
2022-08-24T16:37:30.017Z,101614.12
2022-08-24T16:39:57.656Z,101606.11
2022-08-24T16:42:28.491Z,101610.81
2022-08-24T16:44:57.488Z,101605.16
2022-08-24T16:47:26.109Z,101611.24
2022-08-24T16:49:53.839Z,101614.18
2022-08-24T16:52:22.220Z,101615.55
2022-08-24T16:54:50.435Z,101612.84
2022-08-24T16:57:29.122Z,101621.87
2022-08-24T16:59:57.024Z,101627.75
2022-08-24T17:02:26.786Z,101624.02
2022-08-24T17:04:55.772Z,101630.66
2022-08-24T17:07:27.380Z,101632.20
2022-08-24T17:09:56.127Z,101628.90
2022-08-24T17:12:25.082Z,101636.32
2022-08-24T17:14:52.833Z,101635.93
2022-08-24T17:17:23.265Z,101638.61
2022-08-24T17:19:54.494Z,101641.13
2022-08-24T17:22:24.259Z,101644.01
2022-08-24T17:24:52.301Z,101645.38
2022-08-24T17:27:23.963Z,101651.98
2022-08-24T17:29:51.829Z,101647.08
2022-08-24T17:32:19.624Z,101648.62
2022-08-24T17:34:47.418Z,101656.79
2022-08-24T17:37:15.202Z,101656.95
2022-08-24T17:39:42.901Z,101652.45
2022-08-24T17:42:33.647Z,101643.81
2022-08-24T17:44:58.381Z,101655.68
2022-08-24T17:47:26.216Z,101659.54
2022-08-24T17:49:53.944Z,101661.23
2022-08-24T17:52:21.698Z,101660.26
2022-08-24T17:54:49.470Z,101661.96
2022-08-24T17:57:17.295Z,101667.05
2022-08-24T17:59:45.828Z,101656.27
2022-08-24T18:02:13.696Z,101664.28
2022-08-24T18:04:41.990Z,101667.02
2022-08-24T18:07:13.615Z,101670.85
2022-08-24T18:09:49.524Z,101670.10
2022-08-24T18:12:20.174Z,101670.46
2022-08-24T18:14:47.986Z,101666.73
2022-08-24T18:17:22.704Z,101666.34
2022-08-24T18:19:53.663Z,101666.90
2022-08-24T18:22:21.554Z,101668.04
2022-08-24T18:24:49.255Z,101668.95
2022-08-24T18:27:25.781Z,101673.83
2022-08-24T18:30:00.183Z,101669.51
2022-08-24T18:32:31.199Z,101675.69
2022-08-24T18:35:00.023Z,101668.43
2022-08-24T18:37:27.672Z,101677.55
2022-08-24T18:39:55.448Z,101682.20
2022-08-24T18:42:26.423Z,101683.90
2022-08-24T18:44:55.414Z,101680.50
2022-08-24T18:47:23.143Z,101685.93
2022-08-24T18:49:50.890Z,101695.05
2022-08-24T18:52:20.089Z,101686.65
2022-08-24T18:54:50.212Z,101686.22
2022-08-24T18:57:19.584Z,101693.41
2022-08-24T18:59:47.909Z,101685.41
2022-08-24T19:02:32.308Z,101686.77
2022-08-24T19:05:12.548Z,101690.51
2022-08-24T19:07:42.805Z,101696.55
2022-08-24T19:10:11.952Z,101688.80
2022-08-24T19:12:55.981Z,101698.58
2022-08-24T19:15:35.829Z,101692.92
2022-08-24T19:18:07.740Z,101698.45
2022-08-24T19:20:36.652Z,101702.34
2022-08-24T19:23:15.603Z,101703.36
2022-08-24T19:25:46.337Z,101701.46
2022-08-24T19:28:14.534Z,101703.23
2022-08-24T19:30:43.500Z,101705.61
2022-08-24T19:33:14.348Z,101705.80
2022-08-24T19:35:42.753Z,101704.44
2022-08-24T19:38:10.462Z,101693.55
2022-08-24T19:40:39.171Z,101690.38
2022-08-24T19:43:08.511Z,101700.31
2022-08-24T19:45:56.365Z,101700.31
2022-08-24T19:48:25.575Z,101695.61
2022-08-24T19:50:57.429Z,101685.60
2022-08-24T19:53:26.606Z,101687.07
2022-08-24T19:55:54.252Z,101693.84
2022-08-24T19:58:30.530Z,101703.32
2022-08-24T20:01:03.866Z,101699.34
2022-08-24T20:03:31.606Z,101697.08
2022-08-24T20:05:59.347Z,101699.14
2022-08-24T20:08:27.021Z,101696.69
2022-08-24T20:10:59.696Z,101695.57
2022-08-24T20:13:27.925Z,101696.00
2022-08-24T20:15:57.536Z,101692.76
2022-08-24T20:18:31.785Z,101691.88
2022-08-24T20:20:59.905Z,101698.74
2022-08-24T20:23:28.518Z,101689.85
2022-08-24T20:25:58.736Z,101691.09
2022-08-24T20:28:38.172Z,101697.60
2022-08-24T20:31:06.632Z,101689.30
2022-08-24T20:33:34.385Z,101684.69
2022-08-24T20:36:02.238Z,101694.00
2022-08-24T20:38:31.895Z,101692.27
2022-08-24T20:41:00.707Z,101694.73
2022-08-24T20:43:29.410Z,101689.78
2022-08-24T20:45:57.636Z,101687.43
2022-08-24T20:48:31.469Z,101691.55
2022-08-24T20:51:00.948Z,101691.32
2022-08-24T20:53:28.709Z,101697.47
2022-08-24T20:55:58.387Z,101689.62
2022-08-24T20:58:26.623Z,101692.63
2022-08-24T21:00:54.399Z,101690.73
2022-08-24T21:03:22.490Z,101695.05
2022-08-24T21:05:53.424Z,101688.25
2022-08-24T21:08:21.277Z,101689.88
2022-08-24T21:10:49.536Z,101687.53
2022-08-24T21:13:17.342Z,101685.73
2022-08-24T21:15:45.593Z,101683.67
2022-08-24T21:18:13.327Z,101681.12
2022-08-24T21:20:54.717Z,101676.67
2022-08-24T21:23:31.269Z,101682.20
2022-08-24T21:25:59.767Z,101685.11
2022-08-24T21:28:27.600Z,101679.12
2022-08-24T21:30:55.391Z,101674.41
2022-08-24T21:33:41.775Z,101687.46
2022-08-24T21:36:10.042Z,101681.15
2022-08-24T21:38:38.205Z,101688.18
2022-08-24T21:41:06.910Z,101689.30
2022-08-24T21:43:34.839Z,101688.58
2022-08-24T21:46:02.574Z,101689.36
2022-08-24T21:48:30.250Z,101691.78
2022-08-24T21:50:57.921Z,101684.39
2022-08-24T21:53:28.475Z,101688.74
2022-08-24T21:55:57.077Z,101693.74
2022-08-24T21:58:25.456Z,101686.41
2022-08-24T22:00:53.269Z,101684.55
2022-08-24T22:03:26.728Z,101679.59
2022-08-24T22:05:59.635Z,101690.44
2022-08-24T22:08:28.008Z,101678.41
2022-08-24T22:10:56.512Z,101672.29
2022-08-24T22:13:24.175Z,101681.02
2022-08-24T22:15:52.361Z,101669.67
2022-08-24T22:18:20.083Z,101683.51
2022-08-24T22:20:47.850Z,101675.89
2022-08-24T22:23:15.600Z,101674.61
2022-08-24T22:25:43.323Z,101674.71
2022-08-24T22:28:11.223Z,101678.14
2022-08-24T22:30:38.890Z,101676.34
2022-08-24T22:33:07.074Z,101676.02
2022-08-24T22:35:44.755Z,101678.21
2022-08-24T22:38:13.624Z,101666.93
2022-08-24T22:40:44.144Z,101662.80
2022-08-24T22:43:13.318Z,101659.47
2022-08-24T22:45:41.025Z,101655.05
2022-08-24T22:48:08.733Z,101655.65
2022-08-24T22:50:36.477Z,101653.85
2022-08-24T22:53:04.757Z,101660.39
2022-08-24T22:55:33.660Z,101654.89
2022-08-24T22:58:01.411Z,101650.71
2022-08-24T23:00:29.082Z,101660.03
2022-08-24T23:02:56.737Z,101656.07
2022-08-24T23:05:24.487Z,101660.55
2022-08-24T23:07:52.165Z,101659.27
2022-08-24T23:10:21.264Z,101659.34
2022-08-24T23:12:49.059Z,101661.30
2022-08-24T23:15:16.853Z,101660.29
2022-08-24T23:17:44.727Z,101651.63
2022-08-24T23:20:12.689Z,101652.51
2022-08-24T23:22:41.874Z,101652.54
2022-08-24T23:25:12.745Z,101649.37
2022-08-24T23:27:42.946Z,101648.09
2022-08-24T23:30:14.868Z,101653.42
2022-08-24T23:32:44.122Z,101647.90
2022-08-24T23:35:11.957Z,101648.16
2022-08-24T23:37:39.803Z,101642.63
2022-08-24T23:40:08.268Z,101643.48
2022-08-24T23:42:36.037Z,101633.21
2022-08-24T23:45:03.843Z,101639.30
2022-08-24T23:47:35.913Z,101637.98
2022-08-24T23:50:03.898Z,101637.50
2022-08-24T23:52:40.300Z,101629.62
2022-08-24T23:55:20.063Z,101628.31
2022-08-24T23:57:48.495Z,101624.35
